createdAt,value
2019-01-13T00:01:02.664Z,39.97
2019-01-13T00:03:32.453Z,41.47
2019-01-13T00:06:02.257Z,41.10
2019-01-13T00:08:32.801Z,38.87
2019-01-13T00:11:02.509Z,41.37
2019-01-13T00:13:32.426Z,39.30
2019-01-13T00:16:02.244Z,40.63
2019-01-13T00:18:32.035Z,37.80
2019-01-13T00:21:01.756Z,41.43
2019-01-13T00:23:31.359Z,39.90
2019-01-13T00:26:01.111Z,39.53
2019-01-13T00:28:30.915Z,39.97
2019-01-13T00:31:00.613Z,40.13
2019-01-13T00:33:30.417Z,40.07
2019-01-13T00:36:00.216Z,45.77
2019-01-13T00:38:29.877Z,38.17
2019-01-13T00:40:59.671Z,38.80
2019-01-13T00:43:29.420Z,40.07
2019-01-13T00:45:59.189Z,35.63
2019-01-13T00:48:28.989Z,35.90
2019-01-13T00:50:58.774Z,34.57
2019-01-13T00:53:28.501Z,37.13
2019-01-13T00:55:58.172Z,37.67
2019-01-13T00:58:27.925Z,35.27
2019-01-13T01:00:57.803Z,39.43
2019-01-13T01:03:27.585Z,33.40
2019-01-13T01:05:57.282Z,34.17
2019-01-13T01:08:27.062Z,37.00
2019-01-13T01:10:56.868Z,34.50
2019-01-13T01:13:26.568Z,35.53
2019-01-13T01:15:56.348Z,38.30
2019-01-13T01:18:26.132Z,34.20
2019-01-13T01:20:55.964Z,33.60
2019-01-13T01:23:25.702Z,34.60
2019-01-13T01:25:55.441Z,36.20
2019-01-13T01:28:25.251Z,31.67
2019-01-13T01:30:55.059Z,32.73
2019-01-13T01:33:26.080Z,30.87
2019-01-13T01:35:56.677Z,31.03
2019-01-13T01:38:26.550Z,32.57
2019-01-13T01:40:56.302Z,33.40
2019-01-13T01:43:26.145Z,37.93
2019-01-13T01:45:55.843Z,35.27
2019-01-13T01:48:25.998Z,36.13
2019-01-13T01:50:55.750Z,49.17
2019-01-13T01:53:25.520Z,43.27
2019-01-13T01:55:55.326Z,39.00
2019-01-13T01:58:25.056Z,38.00
2019-01-13T02:00:56.027Z,38.50
2019-01-13T02:03:26.005Z,38.20
2019-01-13T02:05:55.805Z,36.27
2019-01-13T02:08:25.607Z,40.17
2019-01-13T02:10:55.364Z,35.40
2019-01-13T02:13:25.053Z,36.40
2019-01-13T02:15:54.867Z,33.50
2019-01-13T02:18:24.535Z,36.27
2019-01-13T02:20:54.342Z,35.00
2019-01-13T02:23:24.096Z,33.13
2019-01-13T02:25:53.893Z,32.70
2019-01-13T02:28:23.725Z,33.63
2019-01-13T02:30:53.487Z,31.20
2019-01-13T02:33:23.216Z,32.43
2019-01-13T02:35:52.992Z,38.20
2019-01-13T02:38:22.677Z,38.80
2019-01-13T02:40:52.417Z,32.97
2019-01-13T02:43:22.198Z,34.13
2019-01-13T02:45:51.872Z,31.77
2019-01-13T02:48:21.688Z,33.17
2019-01-13T02:50:51.473Z,34.20
2019-01-13T02:53:21.185Z,35.43
2019-01-13T02:55:50.988Z,35.70
2019-01-13T02:58:20.704Z,36.73
2019-01-13T03:00:57.116Z,34.43
2019-01-13T03:03:22.021Z,32.70
2019-01-13T03:05:51.783Z,35.07
2019-01-13T03:08:21.486Z,38.10
2019-01-13T03:10:51.269Z,34.47
2019-01-13T03:13:21.032Z,32.43
2019-01-13T03:15:50.836Z,32.60
2019-01-13T03:18:20.781Z,31.67
2019-01-13T03:20:50.584Z,35.17
2019-01-13T03:23:20.687Z,33.33
2019-01-13T03:25:50.511Z,33.47
2019-01-13T03:28:20.282Z,33.47
2019-01-13T03:30:50.121Z,32.83
2019-01-13T03:33:19.909Z,30.70
2019-01-13T03:35:49.597Z,30.40
2019-01-13T03:38:19.415Z,34.37
2019-01-13T03:40:49.112Z,30.40
2019-01-13T03:43:18.821Z,32.77
2019-01-13T03:45:48.618Z,29.20
2019-01-13T03:48:18.330Z,32.43
2019-01-13T03:50:48.040Z,32.40
2019-01-13T03:53:17.754Z,28.07
2019-01-13T03:55:47.528Z,29.10
2019-01-13T03:58:17.587Z,26.90
2019-01-13T04:00:47.291Z,29.60
2019-01-13T04:03:16.987Z,29.07
2019-01-13T04:05:46.826Z,29.33
2019-01-13T04:08:16.479Z,28.67
2019-01-13T04:10:46.274Z,28.90
2019-01-13T04:13:16.125Z,30.10
2019-01-13T04:15:45.838Z,32.97
2019-01-13T04:18:15.636Z,20.43
2019-01-13T04:20:45.379Z,25.30
2019-01-13T04:23:15.095Z,26.97
2019-01-13T04:25:44.808Z,26.83
2019-01-13T04:28:14.626Z,29.43
2019-01-13T04:30:44.413Z,23.63
2019-01-13T04:33:14.216Z,22.73
2019-01-13T04:35:43.990Z,25.93
2019-01-13T04:38:13.811Z,26.50
2019-01-13T04:40:44.541Z,21.63
2019-01-13T04:43:14.834Z,22.90
2019-01-13T04:45:48.421Z,26.53
2019-01-13T04:48:18.208Z,26.73
2019-01-13T04:50:47.930Z,20.70
2019-01-13T04:53:17.733Z,22.90
2019-01-13T04:55:47.549Z,23.97
2019-01-13T04:58:17.383Z,21.03
2019-01-13T05:00:47.169Z,10.23
2019-01-13T05:03:16.872Z,18.67
2019-01-13T05:05:46.692Z,17.37
2019-01-13T05:08:16.310Z,18.60
2019-01-13T05:10:46.155Z,21.23
2019-01-13T05:13:15.949Z,20.70
2019-01-13T05:15:45.805Z,19.83
2019-01-13T05:18:15.763Z,19.07
2019-01-13T05:20:45.371Z,24.97
2019-01-13T05:23:15.163Z,41.10
2019-01-13T05:25:45.111Z,41.13
2019-01-13T05:28:14.930Z,39.63
2019-01-13T05:30:44.555Z,35.43
2019-01-13T05:33:14.347Z,36.00
2019-01-13T05:35:44.225Z,33.07
2019-01-13T05:38:13.907Z,35.07
2019-01-13T05:40:43.665Z,31.00
2019-01-13T05:43:13.470Z,28.30
2019-01-13T05:45:43.259Z,26.33
2019-01-13T05:48:12.994Z,31.13
2019-01-13T05:50:42.814Z,27.73
2019-01-13T05:53:12.685Z,31.37
2019-01-13T05:55:42.503Z,28.53
2019-01-13T05:58:12.169Z,28.97
2019-01-13T06:00:42.444Z,28.77
2019-01-13T06:03:13.331Z,31.13
2019-01-13T06:05:43.188Z,43.77
2019-01-13T06:08:12.962Z,33.90
2019-01-13T06:10:42.694Z,29.73
2019-01-13T06:13:12.578Z,35.40
2019-01-13T06:15:42.294Z,38.27
2019-01-13T06:18:12.040Z,34.50
2019-01-13T06:20:41.831Z,30.93
2019-01-13T06:23:11.544Z,30.93
2019-01-13T06:25:41.317Z,33.37
2019-01-13T06:28:11.120Z,32.00
2019-01-13T06:30:40.924Z,32.97
2019-01-13T06:33:10.696Z,32.67
2019-01-13T06:35:40.514Z,33.40
2019-01-13T06:38:10.273Z,37.10
2019-01-13T06:40:40.046Z,39.67
2019-01-13T06:43:09.790Z,37.87
2019-01-13T06:45:39.626Z,34.30
2019-01-13T06:48:09.491Z,41.03
2019-01-13T06:50:39.197Z,32.77
2019-01-13T06:53:09.019Z,32.40
2019-01-13T06:55:38.811Z,31.53
2019-01-13T06:58:08.491Z,32.53
2019-01-13T07:00:38.362Z,33.50
2019-01-13T07:03:08.130Z,35.83
2019-01-13T07:05:37.865Z,35.27
2019-01-13T07:08:07.621Z,35.37
2019-01-13T07:10:37.401Z,84.00
2019-01-13T07:13:07.155Z,47.07
2019-01-13T07:15:36.887Z,40.27
2019-01-13T07:18:06.497Z,34.93
2019-01-13T07:20:36.325Z,34.97
2019-01-13T07:23:06.023Z,33.17
2019-01-13T07:25:35.722Z,37.23
2019-01-13T07:28:05.550Z,33.83
2019-01-13T07:30:35.315Z,38.83
2019-01-13T07:33:05.124Z,36.20
2019-01-13T07:35:34.744Z,37.57
2019-01-13T07:38:04.438Z,53.80
2019-01-13T07:40:34.188Z,38.63
2019-01-13T07:43:04.045Z,37.27
2019-01-13T07:45:33.817Z,37.70
2019-01-13T07:48:03.787Z,37.03
2019-01-13T07:50:33.588Z,37.00
2019-01-13T07:53:03.325Z,39.83
2019-01-13T07:55:33.063Z,35.70
2019-01-13T07:58:02.826Z,37.13
2019-01-13T08:00:32.660Z,39.47
2019-01-13T08:03:02.472Z,38.03
2019-01-13T08:05:32.252Z,41.47
2019-01-13T08:08:02.291Z,39.17
2019-01-13T08:10:32.072Z,37.20
2019-01-13T08:13:02.474Z,34.33
2019-01-13T08:15:32.645Z,34.87
2019-01-13T08:18:02.474Z,37.50
2019-01-13T08:20:32.972Z,34.00
2019-01-13T08:23:03.090Z,34.17
2019-01-13T08:25:32.894Z,33.73
2019-01-13T08:28:02.587Z,35.80
2019-01-13T08:30:32.342Z,33.60
2019-01-13T08:33:02.040Z,35.90
2019-01-13T08:35:33.434Z,35.17
2019-01-13T08:38:03.227Z,29.47
2019-01-13T08:40:32.950Z,32.23
2019-01-13T08:43:02.684Z,33.10
2019-01-13T08:45:32.437Z,34.80
2019-01-13T08:48:02.079Z,32.53
2019-01-13T08:50:31.773Z,23.87
2019-01-13T08:53:01.590Z,24.80
2019-01-13T08:55:31.408Z,23.13
2019-01-13T08:58:01.208Z,26.30
2019-01-13T09:00:31.524Z,25.73
2019-01-13T09:03:01.343Z,55.63
2019-01-13T09:05:31.120Z,24.30
2019-01-13T09:08:00.838Z,23.97
2019-01-13T09:10:30.796Z,25.30
2019-01-13T09:13:00.591Z,27.23
2019-01-13T09:15:30.565Z,25.87
2019-01-13T09:18:00.375Z,25.03
2019-01-13T09:20:30.541Z,25.02
2019-01-13T09:23:02.477Z,20.63
2019-01-13T09:25:32.357Z,21.50
2019-01-13T09:28:03.558Z,23.37
2019-01-13T09:30:33.782Z,23.53
2019-01-13T09:33:05.572Z,22.03
2019-01-13T09:35:35.961Z,19.77
2019-01-13T09:38:06.776Z,19.03
2019-01-13T09:40:36.868Z,18.40
2019-01-13T09:43:06.614Z,18.03
2019-01-13T09:45:36.727Z,17.30
2019-01-13T09:48:06.467Z,39.77
2019-01-13T09:50:36.274Z,19.60
2019-01-13T09:53:08.922Z,16.57
2019-01-13T09:55:38.721Z,16.53
2019-01-13T09:58:08.588Z,13.23
2019-01-13T10:00:38.471Z,13.37
2019-01-13T10:03:08.185Z,12.40
2019-01-13T10:05:37.947Z,10.37
2019-01-13T10:08:07.798Z,12.90
2019-01-13T10:10:37.526Z,12.77
2019-01-13T10:13:07.386Z,10.33
2019-01-13T10:15:37.082Z,13.13
2019-01-13T10:18:06.928Z,11.03
2019-01-13T10:20:36.638Z,16.70
2019-01-13T10:23:06.449Z,12.70
2019-01-13T10:25:36.260Z,12.13
2019-01-13T10:28:05.944Z,11.67
2019-01-13T10:30:36.667Z,14.37
2019-01-13T10:33:06.397Z,13.93
2019-01-13T10:35:36.156Z,15.00
2019-01-13T10:38:05.921Z,12.03
2019-01-13T10:40:35.766Z,12.30
2019-01-13T10:43:06.440Z,12.03
2019-01-13T10:45:38.365Z,14.20
2019-01-13T10:48:10.344Z,15.20
2019-01-13T10:50:41.649Z,13.63
2019-01-13T10:53:11.554Z,13.67
2019-01-13T10:55:41.671Z,17.90
2019-01-13T10:58:11.422Z,22.33
2019-01-13T11:00:41.303Z,19.53
2019-01-13T11:03:11.649Z,15.43
2019-01-13T11:05:42.546Z,19.40
2019-01-13T11:08:13.197Z,14.10
2019-01-13T11:10:42.990Z,12.17
2019-01-13T11:13:12.802Z,12.17
2019-01-13T11:15:42.627Z,10.50
2019-01-13T11:18:12.551Z,16.10
2019-01-13T11:20:43.284Z,19.73
2019-01-13T11:23:13.091Z,61.07
2019-01-13T11:25:44.435Z,22.67
2019-01-13T11:28:14.288Z,9.30
2019-01-13T11:30:44.163Z,15.23
2019-01-13T11:33:13.916Z,10.97
2019-01-13T11:35:44.367Z,12.90
2019-01-13T11:38:15.416Z,11.83
2019-01-13T11:40:45.210Z,11.20
2019-01-13T11:43:15.061Z,15.60
2019-01-13T11:45:44.873Z,10.60
2019-01-13T11:48:15.369Z,9.30
2019-01-13T11:50:45.198Z,10.70
2019-01-13T11:53:14.993Z,8.97
2019-01-13T11:55:44.861Z,11.00
2019-01-13T11:58:15.798Z,8.57
2019-01-13T12:00:45.783Z,6.47
2019-01-13T12:03:16.968Z,8.30
2019-01-13T12:05:47.147Z,9.77
2019-01-13T12:08:17.513Z,9.27
2019-01-13T12:10:47.421Z,7.37
2019-01-13T12:13:18.821Z,7.73
2019-01-13T12:15:48.623Z,11.17
2019-01-13T12:18:18.371Z,8.00
2019-01-13T12:20:49.151Z,10.33
2019-01-13T12:23:19.002Z,14.93
2019-01-13T12:25:52.732Z,21.57
2019-01-13T12:28:20.318Z,11.23
2019-01-13T12:30:49.931Z,8.93
2019-01-13T12:33:24.486Z,8.87
2019-01-13T12:35:52.150Z,10.67
2019-01-13T12:38:21.977Z,11.13
2019-01-13T12:40:52.767Z,11.63
2019-01-13T12:43:23.536Z,12.53
2019-01-13T12:45:54.219Z,10.13
2019-01-13T12:48:24.242Z,9.73
2019-01-13T12:50:54.044Z,11.70
2019-01-13T12:53:24.012Z,7.00
2019-01-13T12:55:53.815Z,7.40
2019-01-13T12:58:23.445Z,8.43
2019-01-13T13:00:53.615Z,10.40
2019-01-13T13:03:31.450Z,7.27
2019-01-13T13:05:56.665Z,7.63
2019-01-13T13:08:28.988Z,8.07
2019-01-13T13:10:58.800Z,9.77
2019-01-13T13:13:28.671Z,6.53
2019-01-13T13:16:00.036Z,7.53
2019-01-13T13:18:31.477Z,9.63
2019-01-13T13:21:01.319Z,15.97
2019-01-13T13:23:31.123Z,18.30
2019-01-13T13:26:00.999Z,15.57
2019-01-13T13:28:30.793Z,16.13
2019-01-13T13:31:00.422Z,24.20
2019-01-13T13:33:30.692Z,11.87
2019-01-13T13:36:00.483Z,12.40
2019-01-13T13:38:30.406Z,9.70
2019-01-13T13:41:00.179Z,8.60
2019-01-13T13:43:31.777Z,7.63
2019-01-13T13:46:02.907Z,7.67
2019-01-13T13:48:33.652Z,9.83
2019-01-13T13:51:03.732Z,10.03
2019-01-13T13:53:35.978Z,8.43
2019-01-13T13:56:05.996Z,7.33
2019-01-13T13:58:36.185Z,8.30
2019-01-13T14:01:06.285Z,9.10
2019-01-13T14:03:36.105Z,8.97
2019-01-13T14:06:06.289Z,14.83
2019-01-13T14:08:37.636Z,9.83
2019-01-13T14:11:07.444Z,11.43
2019-01-13T14:13:37.848Z,12.13
2019-01-13T14:16:07.475Z,11.93
2019-01-13T14:18:38.867Z,10.57
2019-01-13T14:21:08.770Z,10.47
2019-01-13T14:23:38.675Z,9.80
2019-01-13T14:26:08.619Z,13.27
2019-01-13T14:28:38.461Z,14.67
2019-01-13T14:31:08.264Z,13.03
2019-01-13T14:33:38.364Z,15.93
2019-01-13T14:36:08.572Z,10.77
2019-01-13T14:38:39.052Z,12.67
2019-01-13T14:41:08.833Z,11.73
2019-01-13T14:43:38.761Z,15.93
2019-01-13T14:46:08.490Z,15.80
2019-01-13T14:48:39.206Z,14.47
2019-01-13T14:51:11.235Z,17.53
2019-01-13T14:53:42.662Z,83.50
2019-01-13T14:56:12.514Z,104.90
2019-01-13T14:58:42.295Z,21.77
2019-01-13T15:01:12.089Z,12.43
2019-01-13T15:03:41.907Z,11.53
2019-01-13T15:06:11.686Z,17.13
2019-01-13T15:08:41.586Z,16.27
2019-01-13T15:11:11.789Z,16.17
2019-01-13T15:13:41.616Z,15.73
2019-01-13T15:16:11.433Z,11.00
2019-01-13T15:18:41.266Z,17.17
2019-01-13T15:21:11.078Z,10.27
2019-01-13T15:23:41.103Z,11.47
2019-01-13T15:26:10.911Z,18.47
2019-01-13T15:28:40.672Z,16.87
2019-01-13T15:31:10.733Z,16.57
2019-01-13T15:33:40.524Z,18.93
2019-01-13T15:36:10.290Z,16.77
2019-01-13T15:38:40.077Z,17.50
2019-01-13T15:41:09.739Z,36.73
2019-01-13T15:43:39.570Z,31.70
2019-01-13T15:46:09.343Z,20.60
2019-01-13T15:48:40.526Z,20.53
2019-01-13T15:51:12.725Z,25.97
2019-01-13T15:53:43.083Z,24.43
2019-01-13T15:56:15.366Z,18.70
2019-01-13T15:58:45.875Z,17.40
2019-01-13T16:01:17.634Z,21.70
2019-01-13T16:03:52.564Z,30.30
2019-01-13T16:06:24.575Z,25.53
2019-01-13T16:08:56.039Z,52.50
2019-01-13T16:11:42.903Z,34.00
2019-01-13T16:14:14.334Z,30.60
2019-01-13T16:16:44.961Z,26.83
2019-01-13T16:19:14.675Z,23.97
2019-01-13T16:21:44.570Z,18.27
2019-01-13T16:24:18.581Z,21.70
2019-01-13T16:26:54.075Z,32.53
2019-01-13T16:29:36.483Z,32.97
2019-01-13T16:32:13.069Z,27.17
2019-01-13T16:34:43.389Z,28.63
2019-01-13T16:37:13.852Z,47.57
2019-01-13T16:39:45.078Z,34.47
2019-01-13T16:42:15.014Z,32.37
2019-01-13T16:44:47.552Z,35.23
2019-01-13T16:47:17.904Z,35.60
2019-01-13T16:49:47.823Z,35.70
2019-01-13T16:52:22.691Z,44.00
2019-01-13T16:54:52.552Z,27.30
2019-01-13T16:57:22.427Z,43.47
2019-01-13T16:59:52.078Z,22.27
2019-01-13T17:02:21.989Z,15.63
2019-01-13T17:04:51.846Z,16.97
2019-01-13T17:07:22.442Z,21.87
2019-01-13T17:09:53.376Z,21.33
2019-01-13T17:12:24.026Z,20.37
2019-01-13T17:14:54.476Z,16.40
2019-01-13T17:17:25.438Z,24.37
2019-01-13T17:19:55.495Z,24.33
2019-01-13T17:22:25.269Z,75.53
2019-01-13T17:24:55.145Z,55.97
2019-01-13T17:27:28.246Z,49.97
2019-01-13T17:29:58.436Z,20.63
2019-01-13T17:32:28.532Z,21.20
2019-01-13T17:34:58.893Z,21.33
2019-01-13T17:37:28.755Z,28.50
2019-01-13T17:39:59.881Z,28.73
2019-01-13T17:42:30.065Z,26.37
2019-01-13T17:44:59.927Z,27.40
2019-01-13T17:47:30.291Z,26.20
2019-01-13T17:50:01.286Z,23.53
2019-01-13T17:52:31.298Z,26.57
2019-01-13T17:55:01.096Z,24.50
2019-01-13T17:57:31.596Z,26.37
2019-01-13T18:00:01.975Z,25.57
2019-01-13T18:02:32.203Z,25.57
2019-01-13T18:05:03.236Z,22.70
2019-01-13T18:07:35.477Z,24.50
2019-01-13T18:10:10.023Z,25.30
2019-01-13T18:12:40.018Z,25.40
2019-01-13T18:15:12.348Z,23.60
2019-01-13T18:17:42.250Z,20.20
2019-01-13T18:20:15.085Z,19.03
2019-01-13T18:22:45.142Z,17.33
2019-01-13T18:25:14.982Z,15.60
2019-01-13T18:27:50.331Z,9.97
2019-01-13T18:30:25.789Z,10.63
2019-01-13T18:33:01.245Z,11.13
2019-01-13T18:35:31.797Z,85.30
2019-01-13T18:38:02.253Z,9.53
2019-01-13T18:40:35.321Z,7.87
2019-01-13T18:43:06.234Z,7.93
2019-01-13T18:45:40.927Z,15.17
2019-01-13T18:48:11.174Z,18.30
2019-01-13T18:50:41.442Z,23.80
2019-01-13T18:53:15.546Z,23.43
2019-01-13T18:55:45.603Z,18.43
2019-01-13T18:58:17.506Z,21.17
2019-01-13T19:00:47.935Z,20.53
2019-01-13T19:03:20.332Z,12.83
2019-01-13T19:05:53.256Z,15.23
2019-01-13T19:08:23.454Z,8.13
2019-01-13T19:11:08.011Z,5.00
2019-01-13T19:13:47.141Z,4.00
2019-01-13T19:16:23.059Z,2.00
2019-01-13T19:18:54.641Z,1.93
2019-01-13T19:21:26.764Z,2.30
2019-01-13T19:23:57.633Z,0.80
2019-01-13T19:26:29.527Z,1.07
2019-01-13T19:28:59.369Z,1.07
2019-01-13T19:31:29.370Z,1.87
2019-01-13T19:34:01.063Z,2.63
2019-01-13T19:36:30.914Z,3.33
2019-01-13T19:39:01.010Z,4.20
2019-01-13T19:41:31.948Z,1.17
2019-01-13T19:44:03.271Z,1.13
2019-01-13T19:46:33.445Z,7.67
2019-01-13T19:49:04.075Z,0.77
2019-01-13T19:51:34.251Z,0.93
2019-01-13T19:54:04.519Z,0.80
2019-01-13T19:56:34.337Z,0.80
2019-01-13T19:59:04.446Z,0.87
2019-01-13T20:01:34.391Z,1.10
2019-01-13T20:04:05.433Z,0.60
2019-01-13T20:06:35.336Z,1.27
2019-01-13T20:09:08.600Z,0.73
2019-01-13T20:11:43.985Z,1.70
2019-01-13T20:14:19.925Z,0.80
2019-01-13T20:16:54.131Z,0.90
2019-01-13T20:19:25.216Z,0.67
2019-01-13T20:21:55.240Z,0.57
2019-01-13T20:24:25.201Z,0.60
2019-01-13T20:26:55.563Z,1.10
2019-01-13T20:29:27.120Z,1.00
2019-01-13T20:31:58.454Z,1.20
2019-01-13T20:34:33.316Z,0.70
2019-01-13T20:37:06.523Z,11.43
2019-01-13T20:39:44.668Z,5.63
2019-01-13T20:42:15.645Z,1.50
2019-01-13T20:44:46.711Z,0.80
2019-01-13T20:47:20.392Z,1.57
2019-01-13T20:49:52.748Z,1.20
2019-01-13T20:52:24.325Z,1.20
2019-01-13T20:54:56.034Z,0.80
2019-01-13T20:57:27.263Z,0.87
2019-01-13T21:00:07.225Z,1.43
2019-01-13T21:02:41.337Z,0.60
2019-01-13T21:05:14.443Z,1.17
2019-01-13T21:07:44.736Z,1.23
2019-01-13T21:10:21.195Z,2.00
2019-01-13T21:12:54.716Z,5.80
2019-01-13T21:15:30.472Z,9.17
2019-01-13T21:18:02.274Z,8.23
2019-01-13T21:20:37.702Z,8.77
2019-01-13T21:23:09.080Z,12.40
2019-01-13T21:25:39.882Z,13.20
2019-01-13T21:28:17.698Z,11.77
2019-01-13T21:30:47.996Z,26.67
2019-01-13T21:33:18.824Z,22.13
2019-01-13T21:35:57.055Z,25.10
2019-01-13T21:38:27.825Z,26.43
2019-01-13T21:40:58.217Z,26.93
2019-01-13T21:43:30.237Z,25.53
2019-01-13T21:46:05.880Z,23.80
2019-01-13T21:48:48.490Z,22.70
2019-01-13T21:51:20.171Z,26.47
2019-01-13T21:53:51.269Z,25.17
2019-01-13T21:56:26.538Z,24.97
2019-01-13T21:58:57.777Z,22.23
2019-01-13T22:01:27.683Z,24.73
2019-01-13T22:04:04.718Z,20.93
2019-01-13T22:06:35.558Z,22.90
2019-01-13T22:09:09.320Z,25.27
2019-01-13T22:11:39.489Z,24.30
2019-01-13T22:14:10.986Z,25.63
2019-01-13T22:16:41.336Z,27.17
2019-01-13T22:19:11.464Z,30.50
2019-01-13T22:21:45.073Z,34.70
2019-01-13T22:24:16.975Z,36.63
2019-01-13T22:26:47.956Z,37.07
2019-01-13T22:29:21.126Z,34.50
2019-01-13T22:31:52.640Z,33.50
2019-01-13T22:34:25.090Z,25.20
2019-01-13T22:36:57.780Z,27.57
2019-01-13T22:39:29.623Z,23.07
2019-01-13T22:42:05.263Z,29.10
2019-01-13T22:44:35.554Z,26.47
2019-01-13T22:47:08.498Z,29.03
2019-01-13T22:49:45.074Z,29.07
2019-01-13T22:52:19.153Z,31.80
2019-01-13T22:54:55.535Z,27.77
2019-01-13T22:57:31.937Z,26.57
2019-01-13T23:00:09.695Z,24.00
2019-01-13T23:02:45.490Z,25.33
2019-01-13T23:05:19.472Z,18.47
2019-01-13T23:07:56.323Z,18.50
2019-01-13T23:10:32.971Z,22.93
2019-01-13T23:13:07.824Z,21.17
2019-01-13T23:15:44.500Z,20.77
2019-01-13T23:18:19.457Z,20.53
2019-01-13T23:20:57.536Z,23.40
2019-01-13T23:23:33.594Z,19.20
2019-01-13T23:26:09.783Z,19.43
2019-01-13T23:28:49.026Z,16.77
2019-01-13T23:31:28.792Z,13.17
2019-01-13T23:34:06.372Z,20.37
2019-01-13T23:36:44.819Z,18.33
2019-01-13T23:39:27.676Z,20.33
2019-01-13T23:42:03.190Z,20.57
2019-01-13T23:44:40.570Z,20.70
2019-01-13T23:47:18.177Z,20.07
2019-01-13T23:49:57.026Z,20.77
2019-01-13T23:52:35.582Z,19.03
2019-01-13T23:55:13.245Z,20.57
2019-01-13T23:57:51.225Z,18.03
